Terminal Aerodrome Forecast
Issued by NWS Central Illinois

Current Version | Previous Version | Text Only | Print | Product List | Glossary On
Versions: 1 2 3 4 5 6 7 8 9 10 11 12 13 14 15 16 17 18 19
000
FTUS43 KILX 222344
TAFPIA
TAF
KPIA 222344Z 2300/2324 21007KT P6SM -RA OVC090
     FM230300 21007KT P6SM VCSH OVC060
     FM231200 20004KT P6SM OVC030
     FM231800 21004KT 6SM -SHRA VCTS OVC015CB
     FM232300 33004KT P6SM VCSH OVC030=

USA.gov is the U.S. government's official web portal to all federal, state and local government web resources and services.